createdAt,value
2017-11-29T00:02:14.448Z,5.00
2017-11-29T00:04:42.746Z,5.00
2017-11-29T00:07:10.260Z,5.00
2017-11-29T00:09:37.757Z,5.00
2017-11-29T00:12:06.030Z,5.00
2017-11-29T00:14:34.297Z,4.90
2017-11-29T00:17:02.576Z,5.00
2017-11-29T00:19:30.840Z,5.00
2017-11-29T00:21:58.353Z,4.90
2017-11-29T00:24:25.869Z,5.00
2017-11-29T00:26:54.139Z,5.00
2017-11-29T00:29:22.409Z,5.00
2017-11-29T00:31:49.911Z,5.00
2017-11-29T00:34:17.417Z,5.00
2017-11-29T00:36:44.956Z,5.00
2017-11-29T00:39:12.442Z,5.00
2017-11-29T00:41:39.956Z,4.90
2017-11-29T00:44:07.458Z,4.90
2017-11-29T00:46:35.072Z,4.90
2017-11-29T00:49:02.584Z,4.90
2017-11-29T00:51:30.085Z,4.80
2017-11-29T00:53:57.709Z,4.80
2017-11-29T00:56:25.992Z,4.70
2017-11-29T00:58:54.264Z,4.70
2017-11-29T01:01:22.531Z,4.70
2017-11-29T01:03:50.800Z,4.60
2017-11-29T01:06:18.304Z,4.60
2017-11-29T01:08:45.805Z,4.60
2017-11-29T01:11:13.313Z,4.50
2017-11-29T01:13:40.821Z,4.50
2017-11-29T01:16:08.341Z,4.50
2017-11-29T01:18:35.844Z,4.50
2017-11-29T01:21:03.367Z,4.50
2017-11-29T01:23:30.865Z,4.40
2017-11-29T01:25:58.380Z,4.40
2017-11-29T01:28:25.897Z,4.40
2017-11-29T01:30:54.172Z,4.30
2017-11-29T01:33:22.444Z,4.30
2017-11-29T01:35:49.952Z,4.30
2017-11-29T01:38:17.461Z,4.30
2017-11-29T01:40:44.960Z,4.30
2017-11-29T01:43:12.456Z,4.30
2017-11-29T01:45:39.980Z,4.20
2017-11-29T01:48:07.612Z,4.20
2017-11-29T01:50:35.893Z,4.10
2017-11-29T01:53:04.164Z,4.10
2017-11-29T01:55:32.441Z,4.10
2017-11-29T01:58:00.705Z,4.00
2017-11-29T02:00:41.076Z,4.00
2017-11-29T02:03:09.352Z,3.90
2017-11-29T02:05:37.836Z,3.90
2017-11-29T02:08:05.352Z,3.90
2017-11-29T02:10:32.852Z,3.90
2017-11-29T02:13:01.337Z,3.80
2017-11-29T02:15:29.598Z,3.80
2017-11-29T02:17:57.868Z,3.80
2017-11-29T02:20:25.369Z,3.80
2017-11-29T02:22:52.887Z,3.80
2017-11-29T02:25:21.168Z,3.90
2017-11-29T02:27:49.440Z,3.90
2017-11-29T02:30:16.940Z,3.90
2017-11-29T02:32:44.438Z,3.90
2017-11-29T02:35:11.957Z,3.90
2017-11-29T02:37:39.462Z,4.00
2017-11-29T02:40:18.973Z,3.90
2017-11-29T02:42:46.478Z,4.00
2017-11-29T02:45:14.832Z,3.90
2017-11-29T02:47:42.344Z,3.90
2017-11-29T02:50:09.982Z,3.90
2017-11-29T02:52:38.356Z,3.90
2017-11-29T02:55:06.844Z,4.00
2017-11-29T02:57:35.125Z,4.00
2017-11-29T03:00:02.640Z,3.90
2017-11-29T03:02:30.139Z,4.00
2017-11-29T03:04:58.408Z,4.00
2017-11-29T03:07:26.678Z,4.00
2017-11-29T03:09:54.948Z,4.00
2017-11-29T03:12:22.451Z,4.00
2017-11-29T03:14:49.976Z,4.00
2017-11-29T03:17:18.259Z,4.00
2017-11-29T03:19:46.528Z,4.00
2017-11-29T03:22:14.788Z,4.00
2017-11-29T03:24:42.285Z,3.90
2017-11-29T03:27:09.788Z,4.00
2017-11-29T03:29:37.292Z,3.90
2017-11-29T03:32:05.556Z,3.90
2017-11-29T03:34:33.838Z,3.90
2017-11-29T03:37:02.104Z,3.80
2017-11-29T03:39:30.377Z,3.80
2017-11-29T03:41:57.922Z,3.80
2017-11-29T03:44:25.438Z,3.90
2017-11-29T03:46:52.938Z,3.90
2017-11-29T03:49:20.441Z,3.80
2017-11-29T03:51:47.939Z,3.80
2017-11-29T03:54:15.449Z,3.80
2017-11-29T03:56:42.952Z,3.80
2017-11-29T03:59:10.465Z,3.80
2017-11-29T04:01:38.728Z,3.80
2017-11-29T04:04:06.993Z,3.80
2017-11-29T04:06:34.509Z,3.80
2017-11-29T04:09:02.035Z,3.80
2017-11-29T04:11:30.320Z,3.70
2017-11-29T04:13:57.835Z,3.70
2017-11-29T04:16:25.348Z,3.70
2017-11-29T04:18:52.845Z,3.70
2017-11-29T04:21:20.341Z,3.60
2017-11-29T04:23:48.613Z,3.60
2017-11-29T04:26:16.877Z,3.60
2017-11-29T04:28:45.144Z,3.60
2017-11-29T04:31:12.668Z,3.60
2017-11-29T04:33:40.169Z,3.70
2017-11-29T04:36:08.436Z,3.60
2017-11-29T04:38:35.933Z,3.60
2017-11-29T04:41:03.431Z,3.70
2017-11-29T04:43:30.929Z,3.70
2017-11-29T04:45:59.407Z,3.70
2017-11-29T04:48:27.677Z,3.70
2017-11-29T04:50:55.965Z,3.70
2017-11-29T04:53:24.247Z,3.70
2017-11-29T04:55:52.512Z,3.70
2017-11-29T04:58:20.798Z,3.70
2017-11-29T05:00:49.069Z,3.70
2017-11-29T05:03:17.333Z,3.70
2017-11-29T05:05:45.622Z,3.60
2017-11-29T05:08:13.889Z,3.60
2017-11-29T05:10:42.178Z,3.60
2017-11-29T05:13:10.653Z,3.70
2017-11-29T05:15:38.919Z,3.70
2017-11-29T05:18:07.199Z,3.70
2017-11-29T05:20:35.485Z,3.70
2017-11-29T05:23:03.752Z,3.70
2017-11-29T05:25:32.041Z,3.70
2017-11-29T05:28:00.532Z,3.70
2017-11-29T05:30:28.803Z,3.70
2017-11-29T05:32:57.080Z,3.70
2017-11-29T05:35:25.361Z,3.60
2017-11-29T05:37:52.875Z,3.60
2017-11-29T05:40:20.396Z,3.60
2017-11-29T05:42:47.908Z,3.60
2017-11-29T05:45:16.209Z,3.60
2017-11-29T05:47:43.743Z,3.60
2017-11-29T05:50:11.262Z,3.60
2017-11-29T05:52:38.765Z,3.70
2017-11-29T05:55:07.034Z,3.70
2017-11-29T05:57:35.301Z,3.60
2017-11-29T06:00:02.815Z,3.60
2017-11-29T06:02:30.321Z,3.60
2017-11-29T06:04:57.837Z,3.50
2017-11-29T06:07:25.349Z,3.50
2017-11-29T06:09:53.621Z,3.60
2017-11-29T06:12:21.137Z,3.60
2017-11-29T06:14:48.638Z,3.60
2017-11-29T06:17:16.143Z,3.60
2017-11-29T06:19:43.681Z,3.60
2017-11-29T06:22:11.960Z,3.70
2017-11-29T06:24:40.224Z,3.60
2017-11-29T06:27:08.501Z,3.60
2017-11-29T06:29:36.765Z,3.60
2017-11-29T06:32:04.269Z,3.60
2017-11-29T06:34:31.768Z,3.60
2017-11-29T06:37:00.805Z,3.60
2017-11-29T06:39:28.313Z,3.60
2017-11-29T06:41:55.812Z,3.60
2017-11-29T06:44:24.094Z,3.70
2017-11-29T06:46:51.598Z,3.70
2017-11-29T06:49:19.108Z,3.60
2017-11-29T06:51:47.407Z,3.50
2017-11-29T06:54:14.908Z,3.50
2017-11-29T06:56:42.408Z,3.50
2017-11-29T06:59:09.924Z,3.50
2017-11-29T07:01:37.451Z,3.50
2017-11-29T07:04:04.955Z,3.50
2017-11-29T07:06:33.217Z,3.50
2017-11-29T07:09:00.733Z,3.50
2017-11-29T07:11:28.229Z,3.50
2017-11-29T07:13:55.721Z,3.50
2017-11-29T07:16:24.197Z,3.60
2017-11-29T07:18:52.476Z,3.60
2017-11-29T07:21:20.761Z,3.70
2017-11-29T07:23:49.023Z,3.70
2017-11-29T07:26:17.293Z,3.80
2017-11-29T07:28:45.573Z,3.80
2017-11-29T07:31:13.847Z,3.90
2017-11-29T07:33:42.121Z,3.90
2017-11-29T07:36:10.500Z,3.90
2017-11-29T07:38:38.788Z,3.80
2017-11-29T07:41:07.269Z,3.70
2017-11-29T07:43:35.644Z,3.70
2017-11-29T07:46:03.913Z,3.80
2017-11-29T07:48:32.188Z,3.80
2017-11-29T07:50:59.702Z,3.70
2017-11-29T07:53:27.212Z,3.80
2017-11-29T07:55:55.697Z,3.80
2017-11-29T07:58:23.964Z,3.80
2017-11-29T08:00:52.254Z,3.90
2017-11-29T08:03:19.781Z,3.80
2017-11-29T08:05:47.295Z,3.80
2017-11-29T08:08:14.821Z,3.80
2017-11-29T08:10:43.089Z,3.90
2017-11-29T08:13:10.601Z,3.80
2017-11-29T08:15:38.121Z,3.80
2017-11-29T08:18:06.385Z,3.80
2017-11-29T08:20:33.884Z,3.80
2017-11-29T08:23:01.405Z,3.80
2017-11-29T08:25:29.739Z,3.90
2017-11-29T08:27:57.244Z,3.90
2017-11-29T08:30:25.529Z,4.10
2017-11-29T08:32:57.565Z,4.10
2017-11-29T08:35:25.070Z,4.10
2017-11-29T08:37:52.589Z,4.20
2017-11-29T08:40:20.096Z,4.30
2017-11-29T08:42:48.405Z,4.30
2017-11-29T08:45:15.904Z,4.40
2017-11-29T08:47:44.173Z,4.50
2017-11-29T08:50:12.459Z,4.60
2017-11-29T08:52:40.725Z,4.70
2017-11-29T08:55:08.994Z,4.70
2017-11-29T08:57:36.514Z,4.70
2017-11-29T09:00:04.037Z,4.80
2017-11-29T09:02:31.549Z,4.70
2017-11-29T09:04:59.067Z,4.60
2017-11-29T09:07:26.569Z,4.60
2017-11-29T09:09:54.097Z,4.60
2017-11-29T09:12:21.617Z,4.60
2017-11-29T09:14:49.885Z,4.60
2017-11-29T09:17:18.178Z,4.70
2017-11-29T09:19:46.455Z,4.70
2017-11-29T09:22:14.721Z,4.80
2017-11-29T09:24:42.988Z,4.80
2017-11-29T09:27:11.285Z,4.90
2017-11-29T09:29:39.773Z,5.00
2017-11-29T09:32:07.281Z,5.00
2017-11-29T09:34:34.801Z,5.00
2017-11-29T09:37:02.326Z,5.10
2017-11-29T09:39:30.621Z,5.10
2017-11-29T09:41:58.143Z,5.10
2017-11-29T09:44:26.412Z,5.20
2017-11-29T09:46:54.230Z,5.20
2017-11-29T09:49:21.733Z,5.10
2017-11-29T09:51:49.249Z,5.10
2017-11-29T09:54:16.759Z,5.10
2017-11-29T09:56:44.281Z,5.00
2017-11-29T09:59:11.796Z,5.10
2017-11-29T10:01:40.179Z,5.10
2017-11-29T10:04:07.676Z,5.10
2017-11-29T10:06:35.326Z,5.10
2017-11-29T10:09:02.852Z,5.10
2017-11-29T10:11:31.121Z,5.00
2017-11-29T10:13:58.632Z,5.00
2017-11-29T10:16:26.153Z,5.00
2017-11-29T10:18:54.439Z,5.10
2017-11-29T10:21:22.720Z,5.10
2017-11-29T10:23:50.254Z,5.20
2017-11-29T10:26:18.525Z,5.40
2017-11-29T10:28:46.041Z,5.40
2017-11-29T10:31:13.571Z,5.60
2017-11-29T10:33:41.073Z,5.80
2017-11-29T10:36:08.591Z,6.00
2017-11-29T10:38:36.112Z,6.10
2017-11-29T10:41:03.681Z,6.20
2017-11-29T10:43:31.949Z,6.40
2017-11-29T10:45:59.468Z,6.40
2017-11-29T10:48:26.964Z,6.40
2017-11-29T10:50:54.470Z,6.50
2017-11-29T10:53:21.980Z,6.50
2017-11-29T10:55:49.576Z,6.40
2017-11-29T10:58:17.121Z,6.40
2017-11-29T11:00:45.397Z,6.30
2017-11-29T11:03:13.691Z,6.30
2017-11-29T11:05:41.239Z,6.20
2017-11-29T11:08:09.508Z,6.20
2017-11-29T11:10:37.773Z,6.30
2017-11-29T11:13:05.281Z,6.30
2017-11-29T11:15:32.780Z,6.30
2017-11-29T11:18:00.293Z,6.40
2017-11-29T11:20:27.801Z,6.40
2017-11-29T11:22:55.316Z,6.40
2017-11-29T11:25:22.820Z,6.40
2017-11-29T11:27:50.324Z,6.30
2017-11-29T11:30:17.836Z,6.30
2017-11-29T11:32:45.336Z,6.30
2017-11-29T11:35:12.837Z,6.20
2017-11-29T11:37:40.353Z,6.20
2017-11-29T11:40:07.858Z,6.20
2017-11-29T11:42:35.362Z,6.20
2017-11-29T11:45:02.881Z,6.20
2017-11-29T11:47:31.396Z,6.20
2017-11-29T11:49:59.659Z,6.20
2017-11-29T11:52:27.925Z,6.20
2017-11-29T11:54:55.600Z,6.10
2017-11-29T11:57:23.873Z,6.20
2017-11-29T11:59:52.160Z,6.30
2017-11-29T12:02:20.446Z,6.30
2017-11-29T12:04:47.988Z,6.30
2017-11-29T12:07:16.259Z,6.40
2017-11-29T12:09:44.749Z,6.40
2017-11-29T12:12:13.033Z,6.40
2017-11-29T12:14:41.305Z,6.40
2017-11-29T12:17:09.577Z,6.40
2017-11-29T12:19:37.842Z,6.40
2017-11-29T12:22:06.108Z,6.30
2017-11-29T12:24:33.604Z,6.30
2017-11-29T12:27:01.124Z,6.30
2017-11-29T12:29:28.617Z,6.30
2017-11-29T12:31:56.117Z,6.30
2017-11-29T12:34:23.624Z,6.30
2017-11-29T12:36:51.888Z,6.30
2017-11-29T12:39:20.197Z,6.20
2017-11-29T12:41:47.701Z,6.20
2017-11-29T12:44:15.196Z,6.20
2017-11-29T12:46:43.466Z,6.10
2017-11-29T12:49:23.548Z,6.20
2017-11-29T12:51:51.179Z,6.10
2017-11-29T12:54:19.461Z,6.20
2017-11-29T12:56:47.740Z,6.10
2017-11-29T12:59:16.021Z,6.10
2017-11-29T13:01:43.525Z,6.10
2017-11-29T13:04:11.028Z,6.20
2017-11-29T13:06:39.510Z,6.30
2017-11-29T13:09:07.772Z,6.20
2017-11-29T13:11:35.281Z,6.20
2017-11-29T13:14:03.010Z,6.20
2017-11-29T13:16:31.297Z,6.00
2017-11-29T13:18:58.821Z,6.00
2017-11-29T13:21:26.328Z,6.00
2017-11-29T13:23:53.949Z,5.90
2017-11-29T13:26:22.353Z,5.80
2017-11-29T13:28:50.355Z,5.80
2017-11-29T13:31:17.858Z,5.80
2017-11-29T13:33:46.133Z,5.80
2017-11-29T13:36:14.409Z,5.70
2017-11-29T13:38:42.708Z,5.70
2017-11-29T13:41:10.214Z,5.70
2017-11-29T13:43:37.733Z,5.70
2017-11-29T13:46:05.229Z,5.70
2017-11-29T13:48:32.728Z,5.70
2017-11-29T13:51:12.788Z,5.80
2017-11-29T13:53:41.102Z,5.80
2017-11-29T13:56:08.825Z,5.80
2017-11-29T13:58:37.092Z,5.70
2017-11-29T14:01:05.376Z,5.70
2017-11-29T14:03:33.681Z,5.70
2017-11-29T14:06:01.234Z,5.70
2017-11-29T14:08:28.737Z,5.60
2017-11-29T14:10:56.254Z,5.60
2017-11-29T14:13:23.776Z,5.60
2017-11-29T14:15:51.276Z,5.60
2017-11-29T14:18:18.816Z,5.60
2017-11-29T14:20:46.348Z,5.50
2017-11-29T14:23:13.862Z,5.50
2017-11-29T14:25:41.370Z,5.50
2017-11-29T14:28:09.645Z,5.40
2017-11-29T14:30:37.925Z,5.40
2017-11-29T14:33:06.193Z,5.40
2017-11-29T14:35:33.738Z,5.40
2017-11-29T14:38:02.257Z,5.40
2017-11-29T14:40:30.543Z,5.40
2017-11-29T14:42:58.064Z,5.40
2017-11-29T14:45:25.560Z,5.40
2017-11-29T14:47:53.085Z,5.40
2017-11-29T14:50:20.605Z,5.40
2017-11-29T14:52:48.130Z,5.40
2017-11-29T14:55:16.408Z,5.40
2017-11-29T14:57:43.914Z,5.40
2017-11-29T15:00:11.424Z,5.40
2017-11-29T15:02:39.693Z,5.40
2017-11-29T15:05:07.969Z,5.40
2017-11-29T15:07:36.237Z,5.40
2017-11-29T15:10:04.509Z,5.40
2017-11-29T15:12:32.822Z,5.40
2017-11-29T15:15:00.337Z,5.40
2017-11-29T15:17:27.914Z,5.40
2017-11-29T15:19:56.199Z,5.30
2017-11-29T15:22:24.468Z,5.30
2017-11-29T15:24:53.049Z,5.30
2017-11-29T15:27:21.314Z,5.30
2017-11-29T15:29:48.845Z,5.30
2017-11-29T15:32:16.348Z,5.40
2017-11-29T15:34:44.623Z,5.30
2017-11-29T15:37:12.893Z,5.30
2017-11-29T15:39:41.163Z,5.30
2017-11-29T15:42:09.453Z,5.30
2017-11-29T15:44:37.741Z,5.30
2017-11-29T15:47:05.288Z,5.30
2017-11-29T15:49:33.556Z,5.40
2017-11-29T15:52:01.872Z,5.40
2017-11-29T15:54:29.393Z,5.30
2017-11-29T15:56:57.676Z,5.30
2017-11-29T15:59:26.737Z,5.30
2017-11-29T16:01:54.236Z,5.30
2017-11-29T16:04:22.549Z,5.30
2017-11-29T16:06:50.073Z,5.30
2017-11-29T16:09:18.341Z,5.30
2017-11-29T16:11:46.628Z,5.30
2017-11-29T16:14:14.137Z,5.30
2017-11-29T16:16:41.669Z,5.30
2017-11-29T16:19:09.185Z,5.20
2017-11-29T16:21:37.464Z,5.20
2017-11-29T16:24:05.733Z,5.20
2017-11-29T16:26:34.225Z,5.20
2017-11-29T16:29:02.506Z,5.20
2017-11-29T16:31:30.781Z,5.30
2017-11-29T16:33:59.050Z,5.20
2017-11-29T16:36:27.317Z,5.20
2017-11-29T16:38:54.829Z,5.20
2017-11-29T16:41:22.346Z,5.20
2017-11-29T16:43:50.614Z,5.20
2017-11-29T16:46:18.888Z,5.20
2017-11-29T16:48:46.388Z,5.20
2017-11-29T16:51:13.907Z,5.20
2017-11-29T16:53:42.185Z,5.20
2017-11-29T16:56:10.478Z,5.10
2017-11-29T16:58:38.757Z,5.20
2017-11-29T17:01:06.281Z,5.10
2017-11-29T17:03:33.801Z,5.10
2017-11-29T17:06:01.309Z,5.10
2017-11-29T17:08:28.805Z,5.10
2017-11-29T17:10:56.324Z,5.10
2017-11-29T17:13:23.829Z,5.10
2017-11-29T17:15:51.328Z,5.10
2017-11-29T17:18:18.824Z,5.10
2017-11-29T17:20:47.092Z,5.10
2017-11-29T17:23:15.375Z,5.10
2017-11-29T17:25:42.893Z,5.10
2017-11-29T17:28:10.402Z,5.10
2017-11-29T17:30:37.932Z,5.10
2017-11-29T17:33:06.204Z,5.00
2017-11-29T17:35:33.716Z,5.00
2017-11-29T17:38:01.222Z,5.00
2017-11-29T17:40:29.493Z,4.90
2017-11-29T17:42:57.003Z,4.90
2017-11-29T17:45:24.508Z,4.90
2017-11-29T17:47:52.021Z,4.90
2017-11-29T17:50:19.552Z,4.90
2017-11-29T17:52:47.833Z,4.90
2017-11-29T17:55:15.528Z,4.90
2017-11-29T17:57:43.060Z,4.90
2017-11-29T18:00:10.579Z,4.90
2017-11-29T18:02:38.113Z,4.90
2017-11-29T18:05:05.666Z,4.90
2017-11-29T18:07:33.195Z,4.80
2017-11-29T18:10:00.733Z,4.90
2017-11-29T18:12:29.017Z,4.80
2017-11-29T18:14:57.304Z,4.80
2017-11-29T18:17:24.829Z,4.80
2017-11-29T18:19:52.337Z,4.80
2017-11-29T18:22:19.849Z,4.80
2017-11-29T18:24:47.389Z,4.80
2017-11-29T18:27:14.920Z,4.80
2017-11-29T18:29:42.437Z,4.80
2017-11-29T18:32:10.706Z,4.70
2017-11-29T18:34:38.207Z,4.70
2017-11-29T18:37:05.717Z,4.70
2017-11-29T18:39:33.257Z,4.70
2017-11-29T18:42:00.793Z,4.70
2017-11-29T18:44:28.320Z,4.70
2017-11-29T18:46:56.605Z,4.60
2017-11-29T18:49:24.121Z,4.60
2017-11-29T18:51:51.625Z,4.50
2017-11-29T18:54:19.139Z,4.50
2017-11-29T18:56:46.638Z,4.40
2017-11-29T18:59:14.152Z,4.40
2017-11-29T19:01:41.657Z,4.40
2017-11-29T19:04:09.180Z,4.30
2017-11-29T19:06:36.677Z,4.30
2017-11-29T19:09:04.181Z,4.20
2017-11-29T19:11:31.749Z,4.20
2017-11-29T19:14:00.262Z,4.10
2017-11-29T19:16:28.537Z,4.10
2017-11-29T19:18:56.827Z,4.00
2017-11-29T19:21:24.337Z,4.00
2017-11-29T19:23:51.845Z,4.10
2017-11-29T19:26:19.358Z,4.00
2017-11-29T19:28:46.876Z,4.00
2017-11-29T19:31:14.376Z,4.00
2017-11-29T19:33:41.876Z,4.00
2017-11-29T19:36:09.388Z,4.00
2017-11-29T19:38:36.917Z,4.00
2017-11-29T19:41:04.417Z,4.00
2017-11-29T19:43:31.932Z,4.00
2017-11-29T19:45:59.432Z,4.00
2017-11-29T19:48:27.025Z,3.90
2017-11-29T19:50:54.536Z,3.80
2017-11-29T19:53:22.061Z,3.70
2017-11-29T19:55:49.692Z,3.70
2017-11-29T19:58:17.956Z,3.70
2017-11-29T20:00:45.470Z,3.70
2017-11-29T20:03:12.985Z,3.80
2017-11-29T20:05:41.249Z,3.70
2017-11-29T20:08:08.753Z,3.70
2017-11-29T20:10:36.255Z,3.70
2017-11-29T20:13:03.757Z,3.70
2017-11-29T20:15:31.401Z,3.70
2017-11-29T20:17:59.671Z,3.70
2017-11-29T20:20:27.936Z,3.80
2017-11-29T20:22:56.303Z,3.70
2017-11-29T20:25:23.806Z,3.70
2017-11-29T20:27:51.308Z,3.70
2017-11-29T20:30:18.807Z,3.70
2017-11-29T20:32:47.069Z,3.70
2017-11-29T20:35:15.354Z,3.70
2017-11-29T20:37:43.836Z,3.70
2017-11-29T20:40:12.323Z,3.70
2017-11-29T20:42:40.605Z,3.70
2017-11-29T20:45:08.121Z,3.60
2017-11-29T20:47:35.641Z,3.70
2017-11-29T20:50:03.272Z,3.60
2017-11-29T20:52:43.488Z,3.70
2017-11-29T20:55:10.997Z,3.60
2017-11-29T20:57:38.645Z,3.70
2017-11-29T21:00:06.908Z,3.70
2017-11-29T21:02:34.430Z,3.70
2017-11-29T21:05:01.921Z,3.70
2017-11-29T21:07:29.428Z,3.70
2017-11-29T21:09:56.941Z,3.70
2017-11-29T21:12:24.447Z,3.70
2017-11-29T21:14:51.965Z,3.70
2017-11-29T21:17:20.229Z,3.70
2017-11-29T21:19:47.729Z,3.70
2017-11-29T21:22:15.251Z,3.70
2017-11-29T21:24:42.836Z,3.70
2017-11-29T21:27:11.130Z,3.60
2017-11-29T21:29:38.795Z,3.60
2017-11-29T21:32:06.361Z,3.60
2017-11-29T21:34:33.917Z,3.50
2017-11-29T21:37:01.437Z,3.50
2017-11-29T21:39:29.929Z,3.60
2017-11-29T21:41:58.192Z,3.60
2017-11-29T21:44:25.692Z,3.60
2017-11-29T21:46:53.216Z,3.60
2017-11-29T21:49:21.484Z,3.60
2017-11-29T21:51:48.997Z,3.60
2017-11-29T21:54:16.543Z,3.60
2017-11-29T21:56:44.052Z,3.60
2017-11-29T21:59:11.557Z,3.60
2017-11-29T22:01:39.074Z,3.60
2017-11-29T22:04:07.352Z,3.60
2017-11-29T22:06:35.621Z,3.60
2017-11-29T22:09:03.130Z,3.60
2017-11-29T22:11:30.642Z,3.70
2017-11-29T22:13:58.149Z,3.60
2017-11-29T22:16:25.656Z,3.70
2017-11-29T22:18:53.164Z,3.70
2017-11-29T22:21:20.672Z,3.60
2017-11-29T22:23:48.183Z,3.60
2017-11-29T22:26:15.801Z,3.60
2017-11-29T22:28:43.307Z,3.60
2017-11-29T22:31:10.814Z,3.60
2017-11-29T22:33:39.080Z,3.60
2017-11-29T22:36:06.595Z,3.60
2017-11-29T22:38:34.118Z,3.70
2017-11-29T22:41:02.422Z,3.80
2017-11-29T22:43:29.933Z,3.70
2017-11-29T22:45:57.448Z,3.80
2017-11-29T22:48:24.949Z,3.80
2017-11-29T22:50:52.448Z,3.80
2017-11-29T22:53:19.965Z,3.70
2017-11-29T22:55:47.460Z,3.70
2017-11-29T22:58:14.966Z,3.70
2017-11-29T23:00:42.473Z,3.70
2017-11-29T23:03:09.980Z,3.70
2017-11-29T23:05:37.483Z,3.70
2017-11-29T23:08:05.765Z,3.60
2017-11-29T23:10:34.240Z,3.60
2017-11-29T23:13:02.504Z,3.60
2017-11-29T23:15:30.177Z,3.60
2017-11-29T23:17:58.440Z,3.60
2017-11-29T23:20:26.113Z,3.60
2017-11-29T23:22:54.376Z,3.60
2017-11-29T23:25:22.645Z,3.50
2017-11-29T23:27:50.152Z,3.50
2017-11-29T23:30:17.654Z,3.50
2017-11-29T23:32:45.152Z,3.50
2017-11-29T23:35:12.672Z,3.50
2017-11-29T23:37:40.173Z,3.50
2017-11-29T23:40:07.677Z,3.40
2017-11-29T23:42:35.212Z,3.50
2017-11-29T23:45:02.730Z,3.50
2017-11-29T23:47:31.005Z,3.40
2017-11-29T23:49:59.295Z,3.40
2017-11-29T23:52:27.561Z,3.40
2017-11-29T23:54:55.841Z,3.40
2017-11-29T23:57:24.108Z,3.40
2017-11-29T23:59:52.600Z,3.40
